Terminal Aerodrome Forecast
Issued by NWS

Home | Current Version | Previous Version | Text Only | Print | Product List | Glossary On
Versions: 1 2 3 4 5 6 7 8 9 10 11 12 13 14 15 16 17 18 19 20 21 22 23 24 25 26 27 28 29 30 31 32 33 34 35 36 37 38 39 40 41 42 43 44 45 46
594
FTUS46 KOTX 031740
TAFSFF
TAF
KSFF 031740Z 0318/0418 24005KT P6SM FEW015 SCT040 SCT180
     FM032000 23009KT P6SM SCT040 SCT150
     FM040000 23006KT P6SM SCT025 BKN060 BKN120
     FM040400 22009G14KT P6SM VCSH BKN030 OVC050
     FM040700 21011G21KT P6SM -RA BKN025 OVC040
     FM041500 23009G14KT P6SM OVC030=

USA.gov is the U.S. government's official web portal to all federal, state and local government web resources and services.